createdAt,value
2024-05-09T00:00:22.491Z,16.03
2024-05-09T00:02:43.915Z,16.00
2024-05-09T00:05:10.326Z,15.98
2024-05-09T00:07:36.593Z,15.96
2024-05-09T00:10:04.145Z,15.92
2024-05-09T00:12:29.312Z,15.91
2024-05-09T00:14:55.597Z,15.87
2024-05-09T00:17:22.087Z,15.86
2024-05-09T00:19:48.300Z,15.83
2024-05-09T00:22:14.599Z,15.81
2024-05-09T00:24:40.923Z,15.75
2024-05-09T00:27:08.343Z,15.75
2024-05-09T00:29:33.660Z,15.73
2024-05-09T00:32:00.149Z,15.73
2024-05-09T00:34:26.356Z,15.82
2024-05-09T00:36:52.581Z,15.88
2024-05-09T00:39:18.949Z,15.75
2024-05-09T00:41:45.304Z,15.75
2024-05-09T00:44:11.656Z,15.73
2024-05-09T00:46:37.926Z,15.82
2024-05-09T00:49:04.420Z,15.86
2024-05-09T00:51:30.566Z,15.86
2024-05-09T00:53:56.919Z,15.87
2024-05-09T00:56:23.280Z,15.86
2024-05-09T00:58:49.586Z,15.88
2024-05-09T01:01:15.960Z,15.81
2024-05-09T01:03:42.413Z,15.77
2024-05-09T01:06:08.594Z,15.74
2024-05-09T01:08:35.013Z,15.68
2024-05-09T01:11:01.382Z,15.63
2024-05-09T01:13:27.535Z,15.57
2024-05-09T01:15:53.886Z,15.55
2024-05-09T01:18:20.458Z,15.46
2024-05-09T01:20:46.613Z,15.28
2024-05-09T01:23:14.534Z,15.15
2024-05-09T01:25:39.295Z,14.99
2024-05-09T01:28:05.856Z,14.86
2024-05-09T01:30:35.476Z,14.84
2024-05-09T01:32:58.602Z,14.84
2024-05-09T01:35:24.810Z,14.89
2024-05-09T01:37:51.122Z,14.96
2024-05-09T01:40:22.026Z,14.81
2024-05-09T01:42:43.726Z,14.51
2024-05-09T01:45:10.037Z,14.43
2024-05-09T01:47:36.475Z,14.37
2024-05-09T01:50:03.493Z,14.37
2024-05-09T01:52:29.047Z,14.37
2024-05-09T01:54:55.372Z,14.37
2024-05-09T01:57:21.729Z,14.37
2024-05-09T01:59:48.058Z,14.38
2024-05-09T02:02:14.560Z,14.41
2024-05-09T02:04:40.797Z,14.41
2024-05-09T02:07:07.096Z,14.38
2024-05-09T02:09:33.416Z,14.40
2024-05-09T02:11:59.849Z,14.43
2024-05-09T02:14:26.258Z,14.45
2024-05-09T02:16:52.485Z,14.46
2024-05-09T06:31:45.379Z,15.71
2024-05-09T06:34:11.710Z,16.07
2024-05-09T06:36:37.989Z,16.15
2024-05-09T06:39:04.309Z,16.07
2024-05-09T06:41:30.746Z,16.19
2024-05-09T06:43:57.080Z,16.26
2024-05-09T06:46:23.377Z,16.38
2024-05-09T06:48:49.918Z,16.45
2024-05-09T09:28:33.179Z,15.10
2024-05-09T09:30:59.658Z,15.22
2024-05-09T09:33:26.145Z,15.31
2024-05-09T09:35:52.361Z,15.47
2024-05-09T09:38:18.723Z,15.59
2024-05-09T09:40:48.674Z,15.56
2024-05-09T09:43:11.600Z,15.42
2024-05-09T09:45:37.794Z,15.46
2024-05-09T09:48:04.281Z,15.47
2024-05-09T09:50:34.470Z,15.59
2024-05-09T09:52:56.785Z,15.70
2024-05-09T09:55:23.192Z,15.62
2024-05-09T10:37:24.674Z,16.45
2024-05-09T10:39:50.968Z,16.50
2024-05-09T10:42:17.391Z,16.63
2024-05-09T10:44:43.725Z,16.56
2024-05-09T10:47:10.139Z,16.74
2024-05-09T10:49:36.417Z,16.88
2024-05-09T10:52:02.866Z,16.66
2024-05-09T10:54:29.083Z,16.56
2024-05-09T10:56:55.401Z,16.49
2024-05-09T10:59:21.747Z,16.79
2024-05-09T11:01:48.174Z,16.92
2024-05-09T11:04:14.580Z,16.73
2024-05-09T11:06:40.831Z,16.63
2024-05-09T11:09:07.075Z,16.55
2024-05-09T11:11:33.449Z,16.73
2024-05-09T11:13:59.757Z,16.58
2024-05-09T11:16:26.167Z,16.59
2024-05-09T11:18:52.670Z,16.45
2024-05-09T11:21:18.761Z,16.39
2024-05-09T11:23:45.084Z,16.46
2024-05-09T11:26:11.396Z,16.32
2024-05-09T11:28:37.778Z,16.26
2024-05-09T11:31:04.136Z,16.22
2024-05-09T11:33:30.579Z,16.41
2024-05-09T11:35:56.877Z,16.42
2024-05-09T11:38:23.227Z,16.71
2024-05-09T11:40:49.632Z,16.97
2024-05-09T11:43:15.994Z,17.25
2024-05-09T11:45:42.347Z,17.26
2024-05-09T11:48:08.740Z,17.36
2024-05-09T11:50:36.118Z,17.48
2024-05-09T11:53:01.316Z,17.54
2024-05-09T11:55:28.441Z,17.55
2024-05-09T11:57:54.007Z,17.42
2024-05-09T12:00:29.161Z,17.40
2024-05-09T12:02:46.644Z,17.35
2024-05-09T12:05:13.026Z,17.39
2024-05-09T12:07:39.273Z,17.46
2024-05-09T12:10:09.436Z,17.46
2024-05-09T12:12:33.508Z,17.45
2024-05-09T12:14:58.371Z,17.37
2024-05-09T12:17:24.785Z,17.41
2024-05-09T12:19:51.055Z,17.48
2024-05-09T12:22:17.575Z,17.77
2024-05-09T12:24:43.781Z,17.87
2024-05-09T12:27:10.125Z,17.71
2024-05-09T12:29:38.663Z,17.56
2024-05-09T12:32:02.887Z,17.56
2024-05-09T12:34:29.273Z,17.86
2024-05-09T12:36:55.685Z,18.03
2024-05-09T12:39:21.985Z,18.34
2024-05-09T12:41:48.323Z,18.62
2024-05-09T12:44:14.659Z,18.35
2024-05-09T12:46:41.082Z,18.38
2024-05-09T12:49:07.701Z,18.55
2024-05-09T12:51:33.753Z,18.60
2024-05-09T12:54:00.079Z,18.33
